createdAt,value
2023-02-28T00:01:27.913Z,-0.37
2023-02-28T00:03:55.570Z,-0.33
2023-02-28T00:06:25.476Z,-0.36
2023-02-28T00:08:53.250Z,-0.38
2023-02-28T00:11:20.723Z,-0.33
2023-02-28T00:13:49.255Z,-0.27
2023-02-28T00:16:21.938Z,-0.25
2023-02-28T00:18:49.819Z,-0.20
2023-02-28T00:21:18.682Z,-0.33
2023-02-28T00:23:46.509Z,-0.39
2023-02-28T00:26:14.704Z,-0.58
2023-02-28T00:28:42.703Z,-0.63
2023-02-28T00:31:10.578Z,-0.69
2023-02-28T00:33:38.498Z,-0.67
2023-02-28T00:36:07.826Z,-0.67
2023-02-28T00:38:35.523Z,-0.72
2023-02-28T00:41:06.293Z,-0.68
2023-02-28T00:43:34.927Z,-0.75
2023-02-28T00:46:03.615Z,-0.73
2023-02-28T00:48:31.529Z,-0.70
2023-02-28T00:50:59.529Z,-0.68
2023-02-28T00:53:26.982Z,-0.74
2023-02-28T00:55:54.696Z,-0.76
2023-02-28T00:58:22.506Z,-0.74
2023-02-28T01:00:50.602Z,-0.73
2023-02-28T01:03:20.278Z,-0.69
2023-02-28T01:05:48.539Z,-0.64
2023-02-28T01:08:16.282Z,-0.53
2023-02-28T01:10:44.283Z,-0.43
2023-02-28T01:13:12.716Z,-0.38
2023-02-28T01:15:43.836Z,-0.35
2023-02-28T01:18:11.794Z,-0.41
2023-02-28T01:20:39.797Z,-0.35
2023-02-28T01:23:07.499Z,-0.28
2023-02-28T01:25:38.671Z,-0.32
2023-02-28T01:28:06.963Z,-0.34
2023-02-28T01:30:34.579Z,-0.40
2023-02-28T01:33:02.284Z,-0.30
2023-02-28T01:35:29.721Z,-0.31
2023-02-28T01:38:04.706Z,-0.34
2023-02-28T01:40:36.872Z,-0.27
2023-02-28T01:43:05.778Z,-0.24
2023-02-28T01:45:35.870Z,-0.20
2023-02-28T01:48:09.567Z,-0.18
2023-02-28T01:50:41.816Z,-0.12
2023-02-28T01:53:13.570Z,-0.09
2023-02-28T01:55:42.571Z,0.00
2023-02-28T01:58:10.558Z,0.04
2023-02-28T02:00:40.302Z,0.05
2023-02-28T02:03:15.655Z,0.04
2023-02-28T02:05:48.839Z,0.11
2023-02-28T02:08:26.796Z,0.21
2023-02-28T02:10:57.581Z,0.23
2023-02-28T02:13:54.323Z,0.32
2023-02-28T02:16:22.349Z,0.31
2023-02-28T02:18:51.697Z,0.29
2023-02-28T02:22:03.896Z,0.43
2023-02-28T02:24:31.739Z,0.55
2023-02-28T02:27:32.521Z,0.63
2023-02-28T02:30:38.747Z,0.75
2023-02-28T02:33:33.743Z,0.85
2023-02-28T02:36:08.761Z,0.94
2023-02-28T02:38:51.898Z,0.98
2023-02-28T02:41:36.607Z,1.03
2023-02-28T02:44:16.903Z,1.09
2023-02-28T02:46:46.122Z,1.08
2023-02-28T02:49:36.756Z,1.14
2023-02-28T02:52:12.754Z,1.17
2023-02-28T02:54:43.860Z,1.21
2023-02-28T02:57:19.616Z,1.22
2023-02-28T02:59:47.618Z,1.31
2023-02-28T03:02:16.631Z,1.30
2023-02-28T03:04:47.349Z,1.30
2023-02-28T03:07:15.345Z,1.30
2023-02-28T03:09:42.767Z,1.35
2023-02-28T03:12:13.629Z,1.28
2023-02-28T03:14:47.770Z,1.32
2023-02-28T03:17:25.637Z,1.37
2023-02-28T03:19:56.101Z,1.39
2023-02-28T03:22:45.056Z,1.35
2023-02-28T03:25:12.762Z,1.37
2023-02-28T03:27:44.371Z,1.41
2023-02-28T03:30:38.648Z,1.29
2023-02-28T03:33:10.648Z,1.27
2023-02-28T03:35:54.394Z,1.29
2023-02-28T03:38:41.651Z,1.28
2023-02-28T03:41:16.783Z,1.31
2023-02-28T03:43:48.787Z,1.32
2023-02-28T03:46:19.694Z,1.22
2023-02-28T03:48:52.141Z,1.29
2023-02-28T03:51:20.912Z,1.28
2023-02-28T03:53:53.910Z,1.37
2023-02-28T03:56:45.667Z,1.37
2023-02-28T03:59:21.958Z,1.31
2023-02-28T04:01:50.687Z,1.31
2023-02-28T04:04:18.967Z,1.35
2023-02-28T04:06:46.917Z,1.37
2023-02-28T04:09:15.684Z,1.35
2023-02-28T04:11:56.926Z,1.38
2023-02-28T04:14:25.178Z,1.35
2023-02-28T04:16:52.803Z,1.32
2023-02-28T04:19:20.807Z,1.34
2023-02-28T04:21:50.686Z,1.34
2023-02-28T04:24:23.807Z,1.35
2023-02-28T04:26:53.686Z,1.30
2023-02-28T04:29:23.323Z,1.31
2023-02-28T04:31:51.570Z,1.32
2023-02-28T04:34:20.390Z,1.37
2023-02-28T04:36:59.606Z,1.30
2023-02-28T04:39:36.894Z,1.37
2023-02-28T04:42:05.352Z,1.35
2023-02-28T04:44:33.032Z,1.23
2023-02-28T04:47:00.904Z,1.29
2023-02-28T04:49:28.953Z,1.27
2023-02-28T04:51:56.951Z,1.26
2023-02-28T04:54:24.821Z,1.29
2023-02-28T04:56:52.818Z,1.39
2023-02-28T04:59:20.706Z,1.41
2023-02-28T05:01:49.987Z,1.40
2023-02-28T05:04:17.794Z,1.40
2023-02-28T05:06:45.960Z,1.39
2023-02-28T05:09:13.727Z,1.35
2023-02-28T05:11:41.840Z,1.37
2023-02-28T05:14:14.139Z,1.39
2023-02-28T05:16:41.716Z,1.40
2023-02-28T05:19:09.764Z,1.42
2023-02-28T05:21:43.722Z,1.43
2023-02-28T05:24:12.728Z,1.35
2023-02-28T05:26:42.974Z,1.26
2023-02-28T05:29:10.911Z,1.28
2023-02-28T05:31:38.833Z,1.35
2023-02-28T05:34:06.738Z,1.37
2023-02-28T05:36:34.851Z,1.43
2023-02-28T05:39:02.847Z,1.40
2023-02-28T05:41:31.552Z,1.44
2023-02-28T05:44:00.850Z,1.43
2023-02-28T05:46:27.988Z,1.41
2023-02-28T05:48:57.011Z,1.41
2023-02-28T05:51:24.742Z,1.46
2023-02-28T05:53:52.529Z,1.48
2023-02-28T05:56:20.386Z,1.50
2023-02-28T05:58:48.026Z,1.61
2023-02-28T06:01:26.235Z,1.67
2023-02-28T06:03:53.756Z,1.62
2023-02-28T06:06:21.757Z,1.67
2023-02-28T06:08:49.674Z,1.71
2023-02-28T06:11:17.766Z,1.84
2023-02-28T06:13:45.767Z,1.92
2023-02-28T06:16:13.587Z,2.02
2023-02-28T06:18:40.864Z,2.11
2023-02-28T06:21:09.965Z,2.16
2023-02-28T06:23:37.630Z,2.22
2023-02-28T06:26:05.210Z,2.25
2023-02-28T06:28:32.262Z,2.28
2023-02-28T06:30:59.343Z,2.29
2023-02-28T06:33:26.631Z,2.32
2023-02-28T06:35:54.537Z,2.40
2023-02-28T06:38:21.982Z,2.45
2023-02-28T06:40:55.963Z,2.55
2023-02-28T06:43:24.124Z,2.88
2023-02-28T06:45:51.672Z,3.10
2023-02-28T06:48:20.370Z,3.38
2023-02-28T06:50:50.354Z,3.50
2023-02-28T06:53:17.797Z,3.46
2023-02-28T06:55:44.697Z,3.60
2023-02-28T06:58:19.752Z,3.70
2023-02-28T07:00:47.347Z,3.66
2023-02-28T07:03:16.557Z,3.74
2023-02-28T07:05:43.682Z,3.56
2023-02-28T07:08:11.056Z,3.57
2023-02-28T07:10:39.495Z,3.74
2023-02-28T07:13:08.183Z,3.87
2023-02-28T07:15:37.641Z,3.93
2023-02-28T07:18:06.310Z,3.97
2023-02-28T07:40:38.488Z,4.43
2023-02-28T07:43:05.704Z,4.53
2023-02-28T07:45:35.480Z,4.44
2023-02-28T07:48:02.816Z,4.45
2023-02-28T07:50:32.805Z,4.29
2023-02-28T07:53:00.211Z,4.45
2023-02-28T07:55:27.451Z,4.49
2023-02-28T07:57:54.864Z,4.49
2023-02-28T08:00:22.777Z,4.63
2023-02-28T08:02:50.042Z,4.63
2023-02-28T08:05:19.431Z,5.15
2023-02-28T08:07:50.628Z,5.48
2023-02-28T08:10:17.704Z,5.58
2023-02-28T08:12:44.807Z,5.71
2023-02-28T08:15:12.067Z,5.57
2023-02-28T08:17:39.204Z,5.77
2023-02-28T08:20:06.738Z,5.99
2023-02-28T08:22:34.137Z,6.21
2023-02-28T08:25:01.185Z,6.52
2023-02-28T08:27:28.232Z,6.64
2023-02-28T08:29:55.340Z,6.91
2023-02-28T08:32:30.672Z,6.77
2023-02-28T08:34:58.076Z,6.84
2023-02-28T08:37:25.154Z,7.20
2023-02-28T08:39:55.591Z,7.45
2023-02-28T08:42:23.876Z,7.83
2023-02-28T08:44:51.150Z,8.06
2023-02-28T08:47:18.170Z,8.17
2023-02-28T08:49:45.203Z,8.32
2023-02-28T08:52:12.133Z,8.27
2023-02-28T08:54:38.923Z,8.51
2023-02-28T08:57:05.905Z,8.69
2023-02-28T08:59:33.530Z,8.66
2023-02-28T09:02:00.780Z,8.53
2023-02-28T09:04:28.065Z,8.70
2023-02-28T09:06:55.327Z,9.47
2023-02-28T09:09:22.610Z,10.19
2023-02-28T09:11:49.541Z,10.88
2023-02-28T09:14:18.622Z,11.49
2023-02-28T09:16:45.556Z,11.45
2023-02-28T09:19:13.439Z,11.41
2023-02-28T09:21:40.636Z,10.98
2023-02-28T09:24:08.119Z,10.73
2023-02-28T09:26:42.888Z,10.74
2023-02-28T09:29:12.718Z,10.93
2023-02-28T09:31:47.909Z,11.00
2023-02-28T09:34:15.347Z,11.66
2023-02-28T09:36:45.689Z,12.15
2023-02-28T09:39:16.523Z,12.76
2023-02-28T09:41:51.094Z,13.40
2023-02-28T09:44:32.095Z,13.44
2023-02-28T09:47:19.077Z,13.82
2023-02-28T09:49:47.996Z,13.19
2023-02-28T09:52:25.758Z,12.73
2023-02-28T09:54:53.312Z,12.86
2023-02-28T09:57:40.663Z,13.40
2023-02-28T10:00:23.852Z,13.64
2023-02-28T10:03:13.150Z,13.15
2023-02-28T10:06:13.701Z,13.42
2023-02-28T10:09:05.782Z,13.37
2023-02-28T10:11:34.898Z,12.95
2023-02-28T10:14:03.703Z,12.71
2023-02-28T10:16:53.119Z,13.08
2023-02-28T10:19:34.801Z,13.04
2023-02-28T10:22:09.522Z,12.95
2023-02-28T10:24:42.374Z,12.41
2023-02-28T10:27:25.681Z,12.00
2023-02-28T10:29:56.204Z,12.03
2023-02-28T10:32:29.370Z,12.21
2023-02-28T10:35:12.568Z,11.55
2023-02-28T10:37:40.930Z,11.03
2023-02-28T10:40:27.809Z,11.38
2023-02-28T10:43:06.260Z,12.00
2023-02-28T10:45:39.805Z,12.48
2023-02-28T10:48:15.427Z,13.11
2023-02-28T10:50:53.243Z,14.11
2023-02-28T10:53:24.270Z,14.20
2023-02-28T10:56:04.041Z,13.85
2023-02-28T10:58:32.748Z,14.13
2023-02-28T11:01:00.800Z,15.00
2023-02-28T11:03:36.298Z,15.47
2023-02-28T11:06:09.240Z,15.43
2023-02-28T11:08:57.101Z,15.20
2023-02-28T11:11:29.369Z,15.85
2023-02-28T11:14:03.877Z,16.62
2023-02-28T11:16:36.335Z,15.31
2023-02-28T11:19:04.428Z,14.34
2023-02-28T11:21:41.471Z,13.99
2023-02-28T11:24:26.246Z,14.15
2023-02-28T11:26:53.099Z,14.16
2023-02-28T11:29:23.858Z,14.18
2023-02-28T11:32:05.957Z,14.20
2023-02-28T11:34:33.474Z,14.41
2023-02-28T11:37:02.701Z,14.50
2023-02-28T11:39:29.659Z,14.91
2023-02-28T11:42:13.940Z,15.13
2023-02-28T11:44:55.962Z,15.42
2023-02-28T11:47:34.402Z,15.40
2023-02-28T11:50:22.952Z,14.80
2023-02-28T11:52:57.864Z,14.58
2023-02-28T11:55:33.440Z,14.02
2023-02-28T11:58:11.853Z,13.89
2023-02-28T12:00:50.889Z,13.68
2023-02-28T12:03:37.041Z,13.52
2023-02-28T12:06:14.325Z,13.40
2023-02-28T12:09:13.663Z,13.51
2023-02-28T12:11:49.626Z,13.71
2023-02-28T12:14:54.210Z,14.40
2023-02-28T12:17:21.100Z,14.40
2023-02-28T12:19:59.747Z,14.38
2023-02-28T12:22:43.070Z,14.54
2023-02-28T12:25:16.063Z,15.08
2023-02-28T12:27:47.885Z,15.77
2023-02-28T12:30:19.420Z,16.79
2023-02-28T12:32:50.571Z,18.69
2023-02-28T12:35:33.426Z,20.03
2023-02-28T12:38:05.659Z,19.76
2023-02-28T12:40:45.829Z,18.09
2023-02-28T12:43:15.172Z,19.55
2023-02-28T12:45:52.633Z,20.45
2023-02-28T12:48:32.783Z,20.53
2023-02-28T12:51:01.773Z,20.00
2023-02-28T12:53:42.215Z,18.53
2023-02-28T12:56:24.014Z,18.64
2023-02-28T12:59:13.399Z,19.71
2023-02-28T13:01:54.112Z,20.09
2023-02-28T13:04:43.038Z,21.15
2023-02-28T13:08:00.907Z,21.58
2023-02-28T13:10:40.381Z,21.46
2023-02-28T13:13:07.656Z,22.14
2023-02-28T13:15:39.210Z,21.93
2023-02-28T13:18:06.109Z,21.49
2023-02-28T13:20:37.906Z,20.78
2023-02-28T13:23:06.799Z,20.23
2023-02-28T13:25:42.913Z,19.38
2023-02-28T13:28:12.126Z,16.80
2023-02-28T13:30:55.726Z,16.48
2023-02-28T13:33:34.903Z,15.30
2023-02-28T13:36:14.702Z,14.95
2023-02-28T13:38:43.209Z,14.19
2023-02-28T13:41:32.631Z,13.49
2023-02-28T13:44:10.136Z,12.66
2023-02-28T13:46:51.792Z,12.53
2023-02-28T13:49:31.203Z,11.76
2023-02-28T13:52:20.273Z,11.04
2023-02-28T13:54:57.033Z,10.95
2023-02-28T13:57:47.388Z,11.11
2023-02-28T14:01:02.518Z,11.53
2023-02-28T14:03:37.973Z,11.61
2023-02-28T14:06:24.056Z,12.15
2023-02-28T14:08:58.586Z,12.32
2023-02-28T14:11:37.415Z,12.36
2023-02-28T14:14:06.421Z,12.54
2023-02-28T14:16:42.257Z,12.53
2023-02-28T14:19:29.232Z,11.99
2023-02-28T14:22:40.950Z,11.45
2023-02-28T14:25:28.667Z,11.15
2023-02-28T14:28:13.961Z,11.19
2023-02-28T14:30:47.380Z,10.86
2023-02-28T14:33:34.794Z,10.97
2023-02-28T14:36:16.057Z,10.18
2023-02-28T14:38:49.866Z,10.02
2023-02-28T14:41:22.740Z,9.70
2023-02-28T14:44:02.333Z,9.35
2023-02-28T14:46:53.948Z,9.09
2023-02-28T14:49:37.138Z,9.09
2023-02-28T14:52:07.581Z,9.02
2023-02-28T14:54:34.521Z,8.93
2023-02-28T14:57:01.802Z,8.98
2023-02-28T14:59:35.813Z,8.95
2023-02-28T15:02:23.319Z,8.86
2023-02-28T15:05:01.871Z,8.84
2023-02-28T15:07:32.410Z,8.83
2023-02-28T15:10:17.403Z,8.81
2023-02-28T15:12:54.101Z,8.83
2023-02-28T15:15:28.142Z,8.86
2023-02-28T15:18:04.820Z,8.83
2023-02-28T15:20:33.306Z,8.74
2023-02-28T15:23:00.694Z,8.57
2023-02-28T15:25:27.853Z,8.53
2023-02-28T15:27:56.839Z,8.42
2023-02-28T15:30:31.410Z,8.40
2023-02-28T15:33:17.705Z,8.41
2023-02-28T15:35:45.537Z,8.50
2023-02-28T15:38:18.672Z,8.62
2023-02-28T15:40:54.832Z,8.54
2023-02-28T15:43:24.721Z,8.33
2023-02-28T15:45:54.292Z,8.10
2023-02-28T15:48:25.870Z,7.88
2023-02-28T15:50:55.519Z,7.81
2023-02-28T15:53:25.825Z,7.72
2023-02-28T15:55:55.302Z,7.64
2023-02-28T15:58:23.230Z,7.51
2023-02-28T16:01:08.870Z,7.44
2023-02-28T16:03:42.336Z,7.34
2023-02-28T16:06:18.172Z,7.30
2023-02-28T16:08:46.116Z,7.28
2023-02-28T16:11:13.025Z,7.20
2023-02-28T16:13:40.178Z,7.07
2023-02-28T16:16:07.566Z,7.09
2023-02-28T16:18:35.074Z,7.07
2023-02-28T16:21:02.343Z,7.06
2023-02-28T16:23:29.557Z,7.01
2023-02-28T16:25:56.592Z,7.01
2023-02-28T16:28:33.451Z,6.94
2023-02-28T16:31:06.019Z,6.83
2023-02-28T16:33:33.985Z,6.60
2023-02-28T16:36:01.523Z,6.37
2023-02-28T16:38:29.058Z,6.24
2023-02-28T16:40:58.167Z,6.13
2023-02-28T16:43:26.732Z,6.06
2023-02-28T16:46:01.182Z,5.98
2023-02-28T16:48:28.686Z,5.88
2023-02-28T16:50:55.641Z,5.79
2023-02-28T16:53:23.096Z,5.76
2023-02-28T16:55:52.055Z,5.61
2023-02-28T16:58:22.677Z,5.52
2023-02-28T17:00:50.330Z,5.46
2023-02-28T17:03:32.818Z,5.39
2023-02-28T17:06:01.813Z,5.44
2023-02-28T17:08:30.812Z,5.34
2023-02-28T17:10:58.342Z,5.34
2023-02-28T17:13:26.114Z,5.28
2023-02-28T17:15:54.021Z,5.23
2023-02-28T17:18:22.321Z,5.20
2023-02-28T17:20:50.029Z,5.16
2023-02-28T17:23:17.096Z,5.17
2023-02-28T17:25:56.309Z,5.18
2023-02-28T17:28:25.037Z,5.20
2023-02-28T17:30:52.074Z,5.19
2023-02-28T17:33:19.145Z,5.27
2023-02-28T17:35:46.142Z,5.24
2023-02-28T17:38:20.596Z,5.24
2023-02-28T17:40:47.522Z,5.23
2023-02-28T17:43:15.757Z,5.25
2023-02-28T17:45:42.834Z,5.28
2023-02-28T17:48:12.506Z,5.27
2023-02-28T17:50:39.482Z,5.30
2023-02-28T17:53:06.402Z,5.34
2023-02-28T17:55:35.044Z,5.32
2023-02-28T17:58:04.118Z,5.35
2023-02-28T18:00:35.938Z,5.41
2023-02-28T18:03:03.291Z,5.32
2023-02-28T18:05:31.223Z,5.30
2023-02-28T18:07:59.052Z,5.28
2023-02-28T18:10:28.478Z,5.33
2023-02-28T18:12:56.250Z,5.35
2023-02-28T18:15:23.957Z,5.36
2023-02-28T18:17:52.161Z,5.36
2023-02-28T18:20:19.792Z,5.29
2023-02-28T18:22:47.730Z,5.22
2023-02-28T18:25:17.246Z,5.19
2023-02-28T18:27:54.496Z,5.10
2023-02-28T18:30:22.844Z,5.12
2023-02-28T18:32:50.263Z,5.15
2023-02-28T18:35:36.253Z,5.14
2023-02-28T18:38:08.072Z,5.06
2023-02-28T18:40:35.834Z,5.04
2023-02-28T18:43:03.549Z,5.11
2023-02-28T18:45:31.338Z,5.18
2023-02-28T18:47:58.808Z,5.20
2023-02-28T18:50:26.074Z,5.29
2023-02-28T18:52:54.184Z,5.28
2023-02-28T18:55:23.085Z,5.34
2023-02-28T18:57:50.268Z,5.30
2023-02-28T19:00:22.921Z,5.31
2023-02-28T19:02:53.849Z,5.33
2023-02-28T19:05:21.325Z,5.29
2023-02-28T19:07:49.086Z,5.35
2023-02-28T19:10:17.226Z,5.30
2023-02-28T19:12:44.553Z,5.36
2023-02-28T19:15:12.458Z,5.39
2023-02-28T19:17:40.313Z,5.45
2023-02-28T19:20:09.266Z,5.47
2023-02-28T19:22:37.348Z,5.48
2023-02-28T19:25:08.114Z,5.48
2023-02-28T19:27:35.330Z,5.41
2023-02-28T19:30:03.209Z,5.45
2023-02-28T19:32:30.601Z,5.51
2023-02-28T19:34:58.211Z,5.49
2023-02-28T19:37:25.370Z,5.42
2023-02-28T19:39:54.857Z,5.42
2023-02-28T19:42:22.356Z,5.52
2023-02-28T19:44:49.991Z,5.43
2023-02-28T19:47:17.355Z,5.43
2023-02-28T19:49:44.483Z,5.45
2023-02-28T19:52:15.025Z,5.48
2023-02-28T19:54:43.462Z,5.51
2023-02-28T19:57:11.003Z,5.55
2023-02-28T19:59:40.215Z,5.56
2023-02-28T20:02:14.424Z,5.60
2023-02-28T20:04:42.297Z,5.61
2023-02-28T20:07:09.905Z,5.58
2023-02-28T20:09:37.327Z,5.60
2023-02-28T20:12:07.096Z,5.62
2023-02-28T20:14:36.956Z,5.55
2023-02-28T20:17:04.267Z,5.59
2023-02-28T20:19:32.009Z,5.57
2023-02-28T20:22:01.140Z,5.56
2023-02-28T20:24:29.139Z,5.61
2023-02-28T20:26:57.910Z,5.60
2023-02-28T20:29:25.311Z,5.53
2023-02-28T20:31:52.764Z,5.56
2023-02-28T20:34:20.136Z,5.55
2023-02-28T20:36:47.480Z,5.59
2023-02-28T20:39:14.768Z,5.63
2023-02-28T20:41:42.139Z,5.63
2023-02-28T20:44:12.316Z,5.57
2023-02-28T20:46:41.453Z,5.57
2023-02-28T20:49:09.405Z,5.52
2023-02-28T20:51:40.397Z,5.55
2023-02-28T20:54:08.799Z,5.53
2023-02-28T20:56:36.032Z,5.47
2023-02-28T20:59:03.641Z,5.49
2023-02-28T21:01:31.288Z,5.52
2023-02-28T21:04:01.376Z,5.47
2023-02-28T21:06:31.638Z,5.49
2023-02-28T21:08:59.207Z,5.54
2023-02-28T21:11:28.931Z,5.55
2023-02-28T21:13:59.180Z,5.54
2023-02-28T21:16:27.458Z,5.51
2023-02-28T21:18:54.870Z,5.48
2023-02-28T21:21:24.440Z,5.46
2023-02-28T21:23:52.347Z,5.47
2023-02-28T21:26:22.044Z,5.49
2023-02-28T21:28:54.047Z,5.48
2023-02-28T21:31:23.452Z,5.45
2023-02-28T21:33:53.629Z,5.37
2023-02-28T21:36:23.318Z,5.34
2023-02-28T21:38:56.453Z,5.30
2023-02-28T21:41:24.794Z,5.24
2023-02-28T21:43:53.355Z,5.20
2023-02-28T21:46:23.077Z,5.21
2023-02-28T21:48:54.056Z,5.21
2023-02-28T21:51:25.324Z,5.18
2023-02-28T21:53:52.918Z,5.17
2023-02-28T21:56:21.364Z,5.18
2023-02-28T21:58:49.572Z,5.14
2023-02-28T22:01:19.505Z,5.16
2023-02-28T22:03:48.331Z,5.21
2023-02-28T22:06:17.688Z,5.20
2023-02-28T22:08:47.419Z,5.19
2023-02-28T22:11:17.066Z,5.14
2023-02-28T22:13:44.824Z,5.17
2023-02-28T22:16:14.157Z,5.16
2023-02-28T22:18:42.175Z,5.11
2023-02-28T22:21:10.277Z,5.10
2023-02-28T22:23:38.583Z,5.09
2023-02-28T22:26:07.701Z,5.06
2023-02-28T22:28:35.699Z,5.01
2023-02-28T22:31:18.742Z,4.98
2023-02-28T22:33:46.617Z,4.95
2023-02-28T22:36:15.594Z,4.94
2023-02-28T22:38:43.487Z,4.96
2023-02-28T22:41:12.187Z,4.96
2023-02-28T22:43:43.676Z,4.96
2023-02-28T22:46:13.999Z,4.96
2023-02-28T22:48:41.361Z,4.99
2023-02-28T22:51:12.652Z,4.96
2023-02-28T22:53:40.080Z,4.94
2023-02-28T22:56:09.481Z,4.94
2023-02-28T22:58:37.458Z,4.95
2023-02-28T23:01:09.185Z,4.99
2023-02-28T23:03:36.838Z,4.99
2023-02-28T23:06:24.732Z,4.98
2023-02-28T23:08:53.614Z,5.00
2023-02-28T23:11:44.474Z,5.03
2023-02-28T23:14:13.473Z,5.04
2023-02-28T23:16:43.813Z,5.07
2023-02-28T23:19:20.410Z,5.09
2023-02-28T23:21:47.511Z,5.13
2023-02-28T23:24:17.095Z,5.10
2023-02-28T23:26:46.733Z,5.19
2023-02-28T23:29:15.418Z,5.17
2023-02-28T23:31:42.905Z,5.23
2023-02-28T23:34:11.244Z,5.23
2023-02-28T23:36:39.951Z,5.25
2023-02-28T23:39:07.526Z,5.32
2023-02-28T23:41:34.744Z,5.37
2023-02-28T23:44:02.395Z,5.34
2023-02-28T23:46:30.028Z,5.35
2023-02-28T23:48:59.122Z,5.28
2023-02-28T23:51:26.289Z,5.25
2023-02-28T23:53:53.537Z,5.28
2023-02-28T23:56:22.773Z,5.27
2023-02-28T23:58:50.770Z,5.19
